Airfield :







YOU CAN JOIN US ON...

 
LOGIN :

Register | Disclaimer

   EN    FR    IT 

 









Legend :    VFR   Marginal VFR   IFR   Intensive IFR   Very Intensive IFR
Visi :
Ceiling :
>= 8 km
>= 3000ft
5 to 8 km
1000 to 3000 ft
1500m to 5 km
500 to 1000 ft
800 to 1500m
200 to 500 ft
< 800m
< 200 ft
Symbols :   Thunderstorms  Fog  Heavy snow  Heavy precipitations  Wind > 20 kt







- Airport Elevation : 199 ft
- IATA code : YRQ


CYRQ - Trois-Rivières

CURRENT METAR :
  • 260200Z AUTO 00000KT 9SM CLR 14/13 A3029 RMK SLP260

EXPIRED METARs :
  • 260100Z AUTO 00000KT 9SM CLR 15/13 A3029 RMK SLP260
  • 260000Z AUTO 00000KT 9SM CLR 18/15 A3028 RMK SLP256

TAF TAF CYRQ
Valid from the 26 at 02:00 until the 26 at 14:00 UTC


260138Z 2602/2614 VRB03KT P6SM SKC RMK FCST BASED ON AUTO OBS. NXT FCST BY 260800Z
No reported NOTAMs for that airfield.



MET'MAP, your aeronautical weather chart ! - Copyright ORBIFLY December 2007 - Disclaimer

ORBIFLY MET'MAP TEAM :

Programming & Development : Alexandra Zaïnal
Concept & Development : Baudouin d'Aumeries
Co-Development & Prog : Marc-Olivier Méhu
Technical & hardware support : Manuel Goepfert

Contact : metmap@orbifly.com




SOURCES & CREDITS :

   NOAA